Dedham, Massachusetts
Current Conditions -  °F | °C
As of 5:53 AM on Sunday 23 Nov 2014 (Local Time) from KOWD Reporting Station
Scattered Clouds Scattered Clouds  
Wind Chill: 39°   Ceiling: Unl
Heat Index: 43°   Visibility: 10mi
Dew Point: 27°   Wind: 7mph
Humidity: 53%   Direction: 200°SSW
Pressure: 30.1"   Gusts: NA
Location:  42.25°N, 71.17°W
Report Text: KOWD 231053Z AUTO 20006KT 10SM SCT060 06/M03 A3010 RMK AO2 SLP193 T00611028
Loading
Personal Weather Stations






























Interactive Weather Map New forecast layout! Learn more

10-Day Weather Forecast

Advertisements
Track Severe Weather on mobile